This is the latest recevied weather packets stored in our database for station/object KF7SOJ. If no packets are shown the sender has not sent any weather packets the latest 10 day(s).
| Time | Temp. | Humidity | Pressure | Rain* | Wind** | Luminosity | Snow |
|---|---|---|---|---|---|---|---|
| 1788089664 | 15.56° C | 77% | 928.2 hPa | 0 mm | - | 0 W/m² | - |
| 1788089359 | 15.56° C | 75% | 927.7 hPa | 0 mm | - | 0 W/m² | - |
| 1788089055 | 15.56° C | 75% | 927.9 hPa | 0 mm | - | 0 W/m² | - |
| 1788088751 | 16.11° C | 73% | 927.7 hPa | 0 mm | - | 0 W/m² | - |
| 1788088446 | 16.11° C | 72% | 927.3 hPa | 0 mm | - | 0 W/m² | - |
| 1788088141 | 15.56° C | 73% | 927.3 hPa | 0 mm | - | 0 W/m² | - |
| 1788087838 | 16.67° C | 70% | 927.2 hPa | 0 mm | - | 0 W/m² | - |
| 1788087536 | 17.22° C | 68% | 927.2 hPa | 0 mm | - | 0 W/m² | - |
| 1788087233 | 17.22° C | 68% | 927.3 hPa | 0 mm | - | 0 W/m² | - |
| 1788086929 | 17.22° C | 66% | 927.5 hPa | 0 mm | - | 0 W/m² | - |
| 1788086626 | 17.22° C | 67% | 927.4 hPa | 0 mm | - | 0 W/m² | - |
| 1788086324 | 17.22° C | 66% | 927.4 hPa | 0 mm | - | 0 W/m² | - |
| 1788086021 | 17.22° C | 66% | 927.3 hPa | 0 mm | - | 0 W/m² | - |
| 1788085718 | 16.67° C | 66% | 927.6 hPa | 0 mm | - | 0 W/m² | - |
| 1788085414 | 16.67° C | 65% | 927.5 hPa | 0 mm | - | 0 W/m² | - |
| 1788085115 | 16.67° C | 66% | 927.6 hPa | 0 mm | - | 0 W/m² | - |
| 1788084805 | 16.11° C | 67% | 927.9 hPa | 0 mm | - | 0 W/m² | - |
| 1788084505 | 16.11° C | 68% | 927.9 hPa | 0 mm | - | 0 W/m² | - |
| 1788084199 | 16.11° C | 67% | 928 hPa | 0 mm | - | 0 W/m² | - |
| 1788083898 | 15.56° C | 69% | 928.2 hPa | 0 mm | - | 0 W/m² | - |
| 1788083594 | 15° C | 70% | 928 hPa | 0 mm | - | 0 W/m² | - |
| 1788083290 | 15° C | 71% | 927.9 hPa | 0 mm | - | 0 W/m² | - |
| 1788082986 | 15° C | 70% | 927.4 hPa | 0 mm | - | 0 W/m² | - |
| 1788082681 | 15° C | 71% | 927.2 hPa | 0 mm | - | 0 W/m² | - |
| 1788082377 | 14.44° C | 73% | 927.1 hPa | 0 mm | - | 0 W/m² | - |
* Rain latest hour (hover to see other rain measurements)
** Current wind speed in m/s (hover to see current wind gust speed)